CSN0117 NZHN-NZOH
Flight info
| Callsign | CSN0117 |
|---|---|
| Flight time | 0h 30m |
| Altitude | 14000 |
| Route | DROPT H325 TM H182 OH |
| Aircraft | A320/M-SDE2E3FGHIJ1RWXY/LB1 |
Departure
| Time | 2026-04-16 10:57 |
|---|---|
| Airport | Hamilton International Airport (NZHN) |
Arrival
| Time | 2026-04-16 11:27 |
|---|---|
| Airport | RNZAF Base Ohakea (NZOH) |
| Time | Latitude | Longitude | Altitude | Speed | Heading |
|---|---|---|---|---|---|
| 2026-04-16 10:31 | -37.86471 | 175.33599 | 176 ft | 0 kts | 137° |
| 2026-04-16 10:39 | -37.86467 | 175.33595 | 176 ft | 1 kts | 137° |
| 2026-04-16 10:40 | -37.86464 | 175.33591 | 176 ft | 1 kts | 127° |
| 2026-04-16 10:40 | -37.86455 | 175.33570 | 176 ft | 3 kts | 108° |
| 2026-04-16 10:41 | -37.86456 | 175.33560 | 176 ft | 10 kts | 182° |
| 2026-04-16 10:41 | -37.86478 | 175.33547 | 176 ft | 0 kts | 210° |
| 2026-04-16 10:48 | -37.86489 | 175.33540 | 176 ft | 16 kts | 210° |
| 2026-04-16 10:48 | -37.86563 | 175.33401 | 176 ft | 14 kts | 282° |
| 2026-04-16 10:48 | -37.86547 | 175.33298 | 177 ft | 12 kts | 257° |
| 2026-04-16 10:49 | -37.86626 | 175.33239 | 175 ft | 17 kts | 196° |
| 2026-04-16 10:49 | -37.86836 | 175.33163 | 175 ft | 45 kts | 196° |
| 2026-04-16 10:49 | -37.87125 | 175.33057 | 174 ft | 40 kts | 196° |
| 2026-04-16 10:49 | -37.87328 | 175.32985 | 174 ft | 4 kts | 155° |
| 2026-04-16 10:50 | -37.87317 | 175.33006 | 174 ft | 6 kts | 7° |
| 2026-04-16 10:50 | -37.87178 | 175.33039 | 174 ft | 37 kts | 16° |
| 2026-04-16 10:50 | -37.86889 | 175.33143 | 175 ft | 45 kts | 16° |
| 2026-04-16 10:50 | -37.86605 | 175.33247 | 175 ft | 40 kts | 16° |
| 2026-04-16 10:51 | -37.86361 | 175.33336 | 179 ft | 34 kts | 16° |
| 2026-04-16 10:51 | -37.86147 | 175.33412 | 179 ft | 32 kts | 15° |
| 2026-04-16 10:51 | -37.85929 | 175.33490 | 177 ft | 33 kts | 16° |
| 2026-04-16 10:51 | -37.85733 | 175.33577 | 176 ft | 23 kts | 29° |
| 2026-04-16 10:52 | -37.85589 | 175.33619 | 176 ft | 7 kts | 293° |
| 2026-04-16 10:52 | -37.85615 | 175.33603 | 176 ft | 9 kts | 191° |
| 2026-04-16 10:52 | -37.85635 | 175.33596 | 176 ft | 0 kts | 196° |
| 2026-04-16 10:56 | -37.85685 | 175.33578 | 176 ft | 38 kts | 196° |
| 2026-04-16 10:56 | -37.86254 | 175.33372 | 179 ft | 130 kts | 196° |
| 2026-04-16 10:56 | -37.87343 | 175.32977 | 719 ft | 159 kts | 196° |
| 2026-04-16 10:57 | -37.88344 | 175.32768 | 2102 ft | 150 kts | 180° |
| 2026-04-16 10:57 | -37.89556 | 175.32786 | 2383 ft | 199 kts | 180° |
| 2026-04-16 10:57 | -37.91009 | 175.32784 | 3238 ft | 216 kts | 181° |
| 2026-04-16 10:57 | -37.92545 | 175.32769 | 4357 ft | 224 kts | 181° |
| 2026-04-16 10:58 | -37.94123 | 175.32755 | 5624 ft | 229 kts | 181° |
| 2026-04-16 10:58 | -37.95722 | 175.32738 | 6925 ft | 231 kts | 181° |
| 2026-04-16 10:58 | -37.97333 | 175.32716 | 8169 ft | 232 kts | 181° |
| 2026-04-16 10:58 | -37.98955 | 175.32690 | 9365 ft | 234 kts | 181° |
| 2026-04-16 10:59 | -38.00591 | 175.32678 | 10485 ft | 238 kts | 180° |
| 2026-04-16 10:59 | -38.02275 | 175.32679 | 11325 ft | 253 kts | 180° |
| 2026-04-16 10:59 | -38.04119 | 175.32692 | 11950 ft | 278 kts | 180° |
| 2026-04-16 10:59 | -38.06154 | 175.32716 | 12424 ft | 308 kts | 180° |
| 2026-04-16 11:00 | -38.08409 | 175.32748 | 12781 ft | 340 kts | 179° |
| 2026-04-16 11:00 | -38.10827 | 175.32787 | 12982 ft | 346 kts | 179° |
| 2026-04-16 11:00 | -38.13215 | 175.32829 | 13066 ft | 345 kts | 179° |
| 2026-04-16 11:00 | -38.15617 | 175.32874 | 13119 ft | 345 kts | 179° |
| 2026-04-16 11:01 | -38.18018 | 175.32917 | 13171 ft | 345 kts | 180° |
| 2026-04-16 11:01 | -38.20418 | 175.32928 | 13228 ft | 345 kts | 180° |
| 2026-04-16 11:01 | -38.22818 | 175.32912 | 13272 ft | 345 kts | 181° |
| 2026-04-16 11:01 | -38.25190 | 175.32881 | 13324 ft | 346 kts | 181° |
| 2026-04-16 11:02 | -38.27599 | 175.32840 | 13376 ft | 346 kts | 181° |
| 2026-04-16 11:02 | -38.30011 | 175.32792 | 13425 ft | 347 kts | 181° |
| 2026-04-16 11:02 | -38.32425 | 175.32741 | 13482 ft | 347 kts | 181° |
| 2026-04-16 11:02 | -38.34841 | 175.32688 | 13533 ft | 347 kts | 181° |
| 2026-04-16 11:03 | -38.37259 | 175.32634 | 13587 ft | 348 kts | 181° |
| 2026-04-16 11:03 | -38.39676 | 175.32579 | 13640 ft | 348 kts | 181° |
| 2026-04-16 11:03 | -38.44494 | 175.32468 | 13750 ft | 349 kts | 181° |
| 2026-04-16 11:04 | -38.46923 | 175.32413 | 13800 ft | 349 kts | 181° |
| 2026-04-16 11:04 | -38.49351 | 175.32357 | 13866 ft | 349 kts | 181° |
| 2026-04-16 11:04 | -38.51781 | 175.32301 | 13920 ft | 350 kts | 181° |
| 2026-04-16 11:04 | -38.54219 | 175.32245 | 13975 ft | 350 kts | 181° |
| 2026-04-16 11:05 | -38.56652 | 175.32189 | 14034 ft | 350 kts | 181° |
| 2026-04-16 11:05 | -38.59093 | 175.32133 | 14092 ft | 351 kts | 181° |
| 2026-04-16 11:05 | -38.61533 | 175.32077 | 14151 ft | 351 kts | 181° |
| 2026-04-16 11:05 | -38.63936 | 175.32022 | 14206 ft | 350 kts | 181° |
| 2026-04-16 11:06 | -38.66375 | 175.31966 | 14271 ft | 351 kts | 181° |
| 2026-04-16 11:06 | -38.68819 | 175.31909 | 14322 ft | 352 kts | 181° |
| 2026-04-16 11:06 | -38.71269 | 175.31853 | 14383 ft | 352 kts | 181° |
| 2026-04-16 11:06 | -38.73717 | 175.31796 | 14441 ft | 351 kts | 181° |
| 2026-04-16 11:07 | -38.76168 | 175.31740 | 14498 ft | 353 kts | 181° |
| 2026-04-16 11:07 | -38.78626 | 175.31683 | 14564 ft | 353 kts | 181° |
| 2026-04-16 11:07 | -38.81048 | 175.31627 | 14627 ft | 353 kts | 181° |
| 2026-04-16 11:07 | -38.83503 | 175.31571 | 14680 ft | 353 kts | 181° |
| 2026-04-16 11:08 | -38.85962 | 175.31514 | 14740 ft | 354 kts | 181° |
| 2026-04-16 11:08 | -38.88426 | 175.31465 | 14801 ft | 354 kts | 180° |
| 2026-04-16 11:08 | -38.90887 | 175.31490 | 14851 ft | 354 kts | 179° |
| 2026-04-16 11:08 | -38.93353 | 175.31565 | 14924 ft | 355 kts | 179° |
| 2026-04-16 11:09 | -38.95823 | 175.31669 | 14986 ft | 355 kts | 178° |
| 2026-04-16 11:09 | -38.98292 | 175.31788 | 15050 ft | 355 kts | 178° |
| 2026-04-16 11:09 | -39.00726 | 175.31915 | 15110 ft | 357 kts | 178° |
| 2026-04-16 11:09 | -39.03204 | 175.32052 | 15176 ft | 357 kts | 178° |
| 2026-04-16 11:10 | -39.05688 | 175.32192 | 15240 ft | 357 kts | 178° |
| 2026-04-16 11:10 | -39.08175 | 175.32336 | 15305 ft | 358 kts | 178° |
| 2026-04-16 11:10 | -39.10656 | 175.32481 | 15371 ft | 358 kts | 178° |
| 2026-04-16 11:10 | -39.13145 | 175.32628 | 15437 ft | 358 kts | 178° |
| 2026-04-16 11:11 | -39.15640 | 175.32776 | 15503 ft | 360 kts | 178° |
| 2026-04-16 11:11 | -39.18135 | 175.32925 | 15571 ft | 359 kts | 178° |
| 2026-04-16 11:11 | -39.20603 | 175.33072 | 15637 ft | 360 kts | 178° |
| 2026-04-16 11:11 | -39.23116 | 175.33223 | 15707 ft | 362 kts | 178° |
| 2026-04-16 11:12 | -39.25621 | 175.33373 | 15777 ft | 360 kts | 178° |
| 2026-04-16 11:12 | -39.28133 | 175.33525 | 15845 ft | 362 kts | 178° |
| 2026-04-16 11:12 | -39.30645 | 175.33676 | 15906 ft | 363 kts | 178° |
| 2026-04-16 11:12 | -39.33165 | 175.33828 | 15987 ft | 362 kts | 178° |
| 2026-04-16 11:13 | -39.35685 | 175.33980 | 16058 ft | 363 kts | 178° |
| 2026-04-16 11:13 | -39.38204 | 175.34132 | 16130 ft | 363 kts | 178° |
| 2026-04-16 11:13 | -39.40731 | 175.34284 | 16202 ft | 363 kts | 178° |
| 2026-04-16 11:13 | -39.43220 | 175.34436 | 16270 ft | 363 kts | 178° |
| 2026-04-16 11:14 | -39.45739 | 175.34588 | 16342 ft | 364 kts | 178° |
| 2026-04-16 11:14 | -39.48273 | 175.34742 | 16415 ft | 365 kts | 178° |
| 2026-04-16 11:14 | -39.50804 | 175.34895 | 16489 ft | 365 kts | 178° |
| 2026-04-16 11:14 | -39.53338 | 175.35049 | 16562 ft | 364 kts | 178° |
| 2026-04-16 11:15 | -39.55879 | 175.35204 | 16635 ft | 365 kts | 178° |
| 2026-04-16 11:15 | -39.58427 | 175.35358 | 16708 ft | 366 kts | 178° |
| 2026-04-16 11:15 | -39.60969 | 175.35512 | 16786 ft | 365 kts | 178° |
| 2026-04-16 11:15 | -39.63501 | 175.35666 | 16854 ft | 364 kts | 178° |
| 2026-04-16 11:16 | -39.66005 | 175.35819 | 16932 ft | 366 kts | 178° |
| 2026-04-16 11:16 | -39.68555 | 175.35974 | 17008 ft | 366 kts | 178° |
| 2026-04-16 11:16 | -39.71100 | 175.36129 | 17088 ft | 367 kts | 178° |
| 2026-04-16 11:16 | -39.73600 | 175.36283 | 17680 ft | 344 kts | 178° |
| 2026-04-16 11:17 | -39.75883 | 175.36424 | 17951 ft | 325 kts | 178° |
| 2026-04-16 11:17 | -39.78106 | 175.36561 | 18771 ft | 312 kts | 178° |
| 2026-04-16 11:17 | -39.80255 | 175.36693 | 19348 ft | 312 kts | 178° |
| 2026-04-16 11:17 | -39.82552 | 175.36829 | 18665 ft | 362 kts | 178° |
| 2026-04-16 11:18 | -39.85170 | 175.36974 | 18172 ft | 373 kts | 178° |
| 2026-04-16 11:18 | -39.87729 | 175.37110 | 17161 ft | 377 kts | 178° |
| 2026-04-16 11:18 | -39.90419 | 175.37295 | 15760 ft | 390 kts | 177° |
| 2026-04-16 11:18 | -39.91515 | 175.37372 | 15496 ft | 385 kts | 177° |
| 2026-04-16 11:19 | -39.92822 | 175.37487 | 15245 ft | 376 kts | 176° |
| 2026-04-16 11:19 | -39.95370 | 175.37874 | 14665 ft | 362 kts | 170° |
| 2026-04-16 11:19 | -39.97765 | 175.38692 | 14066 ft | 351 kts | 160° |
| 2026-04-16 11:19 | -39.99902 | 175.40178 | 13278 ft | 348 kts | 143° |
| 2026-04-16 11:20 | -40.01514 | 175.42481 | 12502 ft | 344 kts | 120° |
| 2026-04-16 11:20 | -40.02190 | 175.45379 | 11731 ft | 340 kts | 91° |
| 2026-04-16 11:20 | -40.01565 | 175.48275 | 11060 ft | 333 kts | 52° |
| 2026-04-16 11:20 | -39.99700 | 175.49811 | 10552 ft | 320 kts | 5° |
| 2026-04-16 11:21 | -39.97687 | 175.48921 | 9645 ft | 319 kts | 307° |
| 2026-04-16 11:21 | -39.97335 | 175.46196 | 8499 ft | 325 kts | 244° |
| 2026-04-16 11:21 | -39.99132 | 175.44606 | 7209 ft | 336 kts | 178° |
| 2026-04-16 11:21 | -40.01025 | 175.46149 | 6070 ft | 340 kts | 114° |
| 2026-04-16 11:22 | -40.00787 | 175.49061 | 4894 ft | 341 kts | 49° |
| 2026-04-16 11:22 | -39.98708 | 175.50097 | 3668 ft | 342 kts | 342° |
| 2026-04-16 11:22 | -39.97242 | 175.47991 | 2970 ft | 326 kts | 269° |
| 2026-04-16 11:22 | -39.97944 | 175.45457 | 3611 ft | 254 kts | 249° |
| 2026-04-16 11:23 | -39.98626 | 175.43708 | 5680 ft | 191 kts | 219° |
| 2026-04-16 11:23 | -39.99891 | 175.43298 | 6456 ft | 216 kts | 180° |
| 2026-04-16 11:23 | -40.01416 | 175.43230 | 3298 ft | 305 kts | 174° |
| 2026-04-16 11:24 | -40.02967 | 175.43856 | 1549 ft | 371 kts | 161° |
| 2026-04-16 11:24 | -40.05335 | 175.44682 | 2105 ft | 360 kts | 167° |
| 2026-04-16 11:24 | -40.07887 | 175.45457 | 2445 ft | 404 kts | 167° |
| 2026-04-16 11:25 | -40.10752 | 175.46370 | 2739 ft | 443 kts | 165° |
| 2026-04-16 11:25 | -40.13836 | 175.47482 | 3100 ft | 474 kts | 165° |
| 2026-04-16 11:25 | -40.17102 | 175.48658 | 3460 ft | 500 kts | 165° |
| 2026-04-16 11:25 | -40.20568 | 175.49743 | 3696 ft | 522 kts | 172° |
| 2026-04-16 11:26 | -40.23861 | 175.48327 | 5038 ft | 516 kts | 229° |
| 2026-04-16 11:26 | -40.24744 | 175.44188 | 6109 ft | 446 kts | 274° |
| 2026-04-16 11:26 | -40.24041 | 175.40503 | 3744 ft | 403 kts | 298° |
| 2026-04-16 11:26 | -40.22291 | 175.39033 | 615 ft | 248 kts | 359° |
| 2026-04-16 11:27 | -40.20925 | 175.38866 | 211 ft | 155 kts | 346° |
| 2026-04-16 11:27 | -40.20074 | 175.38639 | 170 ft | 91 kts | 348° |
| 2026-04-16 11:27 | -40.19857 | 175.38521 | 176 ft | 13 kts | 263° |
| 2026-04-16 11:27 | -40.19919 | 175.38275 | 169 ft | 35 kts | 212° |
| 2026-04-16 11:28 | -40.19972 | 175.38193 | 165 ft | 13 kts | 326° |